createdAt,value
2018-12-13T00:00:58.741Z,103408.47
2018-12-13T00:03:27.461Z,103405.42
2018-12-13T00:05:56.379Z,103413.45
2018-12-13T00:08:25.192Z,103414.73
2018-12-13T00:10:54.099Z,103420.38
2018-12-13T00:13:22.910Z,103419.89
2018-12-13T00:15:52.148Z,103416.00
2018-12-13T00:18:20.970Z,103412.84
2018-12-13T00:20:49.716Z,103408.34
2018-12-13T00:23:18.429Z,103404.42
2018-12-13T00:25:47.152Z,103413.31
2018-12-13T00:28:15.903Z,103420.14
2018-12-13T00:30:44.768Z,103429.64
2018-12-13T00:33:13.724Z,103423.05
2018-12-13T00:35:42.517Z,103423.25
2018-12-13T00:38:11.289Z,103428.73
2018-12-13T00:40:40.036Z,103423.53
2018-12-13T00:43:08.797Z,103426.97
2018-12-13T00:45:37.560Z,103417.45
2018-12-13T00:48:06.339Z,103417.06
2018-12-13T00:50:34.952Z,103421.58
2018-12-13T00:53:03.603Z,103415.00
2018-12-13T00:55:32.299Z,103417.27
2018-12-13T00:58:01.212Z,103424.13
2018-12-13T01:00:30.260Z,103426.95
2018-12-13T01:02:59.005Z,103422.02
2018-12-13T01:05:27.751Z,103426.92
2018-12-13T01:07:56.437Z,103423.88
2018-12-13T01:10:25.233Z,103434.17
2018-12-13T01:12:54.136Z,103437.72
2018-12-13T01:15:23.249Z,103442.72
2018-12-13T01:17:51.946Z,103451.62
2018-12-13T01:20:20.775Z,103452.78
2018-12-13T01:22:49.417Z,103442.88
2018-12-13T01:25:18.398Z,103436.84
2018-12-13T01:27:47.210Z,103439.47
2018-12-13T01:30:15.856Z,103439.00
2018-12-13T01:32:45.021Z,103436.46
2018-12-13T01:35:14.073Z,103428.00
2018-12-13T01:37:43.020Z,103420.75
2018-12-13T01:40:11.653Z,103418.96
2018-12-13T01:42:40.759Z,103428.28
2018-12-13T01:45:09.516Z,103431.11
2018-12-13T01:47:38.194Z,103424.91
2018-12-13T01:50:07.129Z,103425.11
2018-12-13T01:52:36.113Z,103430.31
2018-12-13T01:55:06.026Z,103425.11
2018-12-13T01:57:35.084Z,103416.02
2018-12-13T02:00:06.072Z,103418.45
2018-12-13T02:02:35.014Z,103414.63
2018-12-13T02:05:03.864Z,103417.48
2018-12-13T02:07:32.947Z,103425.84
2018-12-13T02:10:01.795Z,103424.70
2018-12-13T02:12:30.425Z,103428.23
2018-12-13T02:15:00.360Z,103422.27
2018-12-13T02:17:29.499Z,103424.42
2018-12-13T02:19:58.241Z,103416.01
2018-12-13T02:22:26.926Z,103417.17
2018-12-13T02:27:34.794Z,103406.88
2018-12-13T02:30:04.551Z,103414.50
2018-12-13T02:32:33.236Z,103409.80
2018-12-13T02:35:02.471Z,103410.19
2018-12-13T02:37:31.330Z,103403.75
2018-12-13T02:40:00.171Z,103397.66
2018-12-13T02:42:28.889Z,103396.67
2018-12-13T02:44:57.583Z,103390.56
2018-12-13T02:47:26.265Z,103393.42
2018-12-13T02:49:55.087Z,103388.03
2018-12-13T02:52:23.891Z,103382.76
2018-12-13T02:54:52.832Z,103382.15
2018-12-13T02:57:21.509Z,103381.92
2018-12-13T02:59:50.258Z,103387.71
2018-12-13T03:02:19.319Z,103391.69
2018-12-13T03:04:48.041Z,103396.28
2018-12-13T03:07:16.821Z,103397.16
2018-12-13T03:09:45.515Z,103403.52
2018-12-13T03:12:14.706Z,103409.00
2018-12-13T03:14:43.472Z,103403.72
2018-12-13T03:17:12.618Z,103395.20
2018-12-13T03:22:24.568Z,103393.93
2018-12-13T03:24:53.447Z,103394.43
2018-12-13T03:27:22.296Z,103395.70
2018-12-13T03:29:51.216Z,103398.75
2018-12-13T03:32:20.735Z,103394.93
2018-12-13T03:34:49.731Z,103389.73
2018-12-13T03:37:20.741Z,103385.53
2018-12-13T03:39:49.468Z,103385.03
2018-12-13T03:42:18.472Z,103391.77
2018-12-13T03:44:47.408Z,103371.93
2018-12-13T03:47:16.677Z,103362.25
2018-12-13T03:49:45.474Z,103354.52
2018-12-13T03:52:14.363Z,103356.67
2018-12-13T03:54:43.470Z,103354.12
2018-12-13T03:57:12.516Z,103349.61
2018-12-13T03:59:41.380Z,103352.16
2018-12-13T04:02:10.512Z,103301.58
2018-12-13T04:04:39.550Z,103356.34
2018-12-13T04:07:08.471Z,103374.63
2018-12-13T04:09:37.356Z,103376.38
2018-12-13T04:12:06.176Z,103374.83
2018-12-13T04:14:35.163Z,103377.38
2018-12-13T04:17:04.091Z,103375.72
2018-12-13T04:19:32.785Z,103367.48
2018-12-13T04:22:02.128Z,103369.80
2018-12-13T04:24:31.306Z,103374.42
2018-12-13T04:27:00.528Z,103373.03
2018-12-13T04:29:29.297Z,103368.84
2018-12-13T04:31:58.373Z,103373.14
2018-12-13T04:34:27.215Z,103368.45
2018-12-13T04:36:55.916Z,103357.09
2018-12-13T04:39:24.889Z,103351.42
2018-12-13T04:41:53.685Z,103348.00
2018-12-13T04:44:22.612Z,103346.23
2018-12-13T04:46:51.357Z,103358.05
2018-12-13T04:49:20.497Z,103348.36
2018-12-13T04:51:49.203Z,103354.88
2018-12-13T04:54:20.997Z,103350.87
2018-12-13T04:56:49.684Z,103346.06
2018-12-13T04:59:18.737Z,103346.22
2018-12-13T05:01:47.709Z,103346.33
2018-12-13T05:04:16.453Z,103344.48
2018-12-13T05:06:45.303Z,103339.45
2018-12-13T05:09:14.555Z,103340.52
2018-12-13T05:11:43.759Z,103346.11
2018-12-13T05:14:12.552Z,103348.04
2018-12-13T05:16:41.843Z,103352.46
2018-12-13T05:19:10.585Z,103347.54
2018-12-13T05:21:39.306Z,103343.92
2018-12-13T05:24:08.210Z,103340.45
2018-12-13T05:26:37.303Z,103342.50
2018-12-13T05:29:06.013Z,103339.73
2018-12-13T05:31:34.788Z,103328.56
2018-12-13T05:34:03.607Z,103331.41
2018-12-13T05:36:32.241Z,103334.73
2018-12-13T05:39:01.219Z,103336.50
2018-12-13T05:41:30.000Z,103331.91
2018-12-13T05:43:59.060Z,103324.34
2018-12-13T05:46:28.084Z,103327.45
2018-12-13T05:48:56.833Z,103328.61
2018-12-13T05:51:25.857Z,103326.22
2018-12-13T05:53:54.723Z,103327.30
2018-12-13T05:56:23.314Z,103342.22
2018-12-13T05:58:52.044Z,103333.88
2018-12-13T06:01:20.932Z,103338.69
2018-12-13T06:03:49.944Z,103336.84
2018-12-13T06:06:18.789Z,103329.99
2018-12-13T06:08:47.561Z,103324.22
2018-12-13T06:11:16.351Z,103335.14
2018-12-13T06:13:45.331Z,103337.19
2018-12-13T06:16:14.172Z,103334.33
2018-12-13T06:18:43.444Z,103329.37
2018-12-13T06:21:12.353Z,103329.78
2018-12-13T06:23:41.215Z,103334.98
2018-12-13T06:26:09.918Z,103330.67
2018-12-13T06:28:38.511Z,103336.25
2018-12-13T06:31:07.771Z,103332.44
2018-12-13T06:33:36.530Z,103326.33
2018-12-13T06:36:05.242Z,103318.86
2018-12-13T06:38:33.962Z,103316.70
2018-12-13T06:41:03.244Z,103322.86
2018-12-13T06:43:32.027Z,103326.55
2018-12-13T06:46:00.881Z,103327.70
2018-12-13T06:48:29.789Z,103321.73
2018-12-13T06:50:58.710Z,103321.59
2018-12-13T06:53:27.419Z,103326.66
2018-12-13T06:55:56.279Z,103327.63
2018-12-13T06:58:25.059Z,103322.67
2018-12-13T07:00:53.813Z,103324.83
2018-12-13T07:03:22.488Z,103322.28
2018-12-13T07:05:51.695Z,103321.78
2018-12-13T07:08:20.815Z,103327.63
2018-12-13T07:10:49.538Z,103328.52
2018-12-13T07:13:18.533Z,103327.75
2018-12-13T07:15:47.253Z,103323.17
2018-12-13T07:18:16.083Z,103324.05
2018-12-13T07:20:44.782Z,103327.86
2018-12-13T07:23:13.710Z,103325.94
2018-12-13T07:25:42.561Z,103330.72
2018-12-13T07:28:11.516Z,103327.64
2018-12-13T07:30:40.443Z,103321.67
2018-12-13T07:33:09.399Z,103328.34
2018-12-13T07:35:38.150Z,103336.45
2018-12-13T07:38:06.737Z,103335.95
2018-12-13T07:40:35.369Z,103360.47
2018-12-13T07:43:05.460Z,103338.41
2018-12-13T07:45:34.204Z,103340.53
2018-12-13T07:48:03.293Z,103341.03
2018-12-13T07:50:32.315Z,103344.19
2018-12-13T07:53:01.387Z,103339.50
2018-12-13T07:55:30.339Z,103342.65
2018-12-13T07:57:59.068Z,103349.20
2018-12-13T08:00:27.995Z,103343.03
2018-12-13T08:02:56.677Z,103346.66
2018-12-13T08:05:25.936Z,103339.53
2018-12-13T08:07:54.649Z,103345.73
2018-12-13T08:10:23.694Z,103347.08
2018-12-13T08:12:52.584Z,103352.16
2018-12-13T08:15:21.573Z,103350.23
2018-12-13T08:17:50.480Z,103357.24
2018-12-13T08:20:19.616Z,103363.70
2018-12-13T08:22:49.905Z,103366.14
2018-12-13T08:25:18.740Z,103361.74
2018-12-13T08:27:48.013Z,103358.43
2018-12-13T08:30:17.000Z,103353.35
2018-12-13T08:32:45.979Z,103351.70
2018-12-13T08:35:14.763Z,103355.20
2018-12-13T08:37:43.869Z,103360.90
2018-12-13T08:40:12.752Z,103349.23
2018-12-13T08:42:41.479Z,103347.97
2018-12-13T08:45:10.453Z,103363.83
2018-12-13T08:47:39.409Z,103353.01
2018-12-13T08:50:08.515Z,103352.44
2018-12-13T08:52:37.588Z,103340.73
2018-12-13T08:55:06.866Z,103341.73
2018-12-13T08:57:35.543Z,103351.43
2018-12-13T09:00:04.751Z,103344.80
2018-12-13T09:02:33.852Z,103347.42
2018-12-13T09:05:03.280Z,103338.76
2018-12-13T09:07:32.571Z,103340.14
2018-12-13T09:10:01.579Z,103344.53
2018-12-13T09:12:30.296Z,103349.84
2018-12-13T09:14:59.418Z,103343.22
2018-12-13T09:17:28.494Z,103338.02
2018-12-13T09:19:57.352Z,103336.27
2018-12-13T09:22:26.732Z,103334.51
2018-12-13T09:24:55.388Z,103331.69
2018-12-13T09:27:24.456Z,103329.84
2018-12-13T09:29:54.460Z,103335.81
2018-12-13T09:32:23.326Z,103335.81
2018-12-13T09:34:52.405Z,103330.06
2018-12-13T09:37:21.308Z,103333.52
2018-12-13T09:39:50.125Z,103328.67
2018-12-13T09:42:18.902Z,103327.14
2018-12-13T09:44:47.518Z,103335.57
2018-12-13T09:47:16.631Z,103334.59
2018-12-13T09:49:45.631Z,103331.49
2018-12-13T09:52:14.725Z,103325.00
2018-12-13T09:54:43.488Z,103330.59
2018-12-13T09:57:12.391Z,103334.92
2018-12-13T09:59:41.223Z,103321.00
2018-12-13T10:02:10.045Z,103327.02
2018-12-13T10:04:38.973Z,103323.28
2018-12-13T10:07:07.901Z,103316.35
2018-12-13T10:09:36.905Z,103315.08
2018-12-13T10:12:05.996Z,103311.66
2018-12-13T10:14:35.046Z,103317.52
2018-12-13T10:17:03.932Z,103323.49
2018-12-13T10:19:32.775Z,103315.36
2018-12-13T10:22:02.130Z,103313.31
2018-12-13T10:24:31.145Z,103318.41
2018-12-13T10:27:00.048Z,103327.03
2018-12-13T10:29:29.552Z,103318.13
2018-12-13T10:31:58.897Z,103308.72
2018-12-13T10:34:27.715Z,103303.34
2018-12-13T10:36:56.634Z,103298.82
2018-12-13T10:39:25.365Z,103301.86
2018-12-13T10:41:54.228Z,103301.97
2018-12-13T10:44:28.303Z,103289.42
2018-12-13T10:46:57.165Z,103292.39
2018-12-13T10:49:26.169Z,103289.73
2018-12-13T10:51:55.342Z,103293.16
2018-12-13T10:54:24.830Z,103297.58
2018-12-13T10:56:54.555Z,103298.14
2018-12-13T10:59:23.993Z,103298.53
2018-12-13T11:01:57.955Z,103298.92
2018-12-13T11:04:27.235Z,103298.63
2018-12-13T11:06:55.952Z,103295.31
2018-12-13T11:09:24.675Z,103289.15
2018-12-13T11:11:53.842Z,103291.20
2018-12-13T11:14:22.569Z,103285.72
2018-12-13T11:16:51.509Z,103278.96
2018-12-13T11:19:20.389Z,103282.08
2018-12-13T11:21:49.588Z,103282.68
2018-12-13T11:24:18.601Z,103288.66
2018-12-13T11:26:47.538Z,103036.84
2018-12-13T11:30:25.484Z,103288.73
2018-12-13T11:32:54.593Z,103289.94
2018-12-13T11:35:23.313Z,103295.81
2018-12-13T11:37:52.378Z,103291.89
2018-12-13T11:40:21.593Z,103295.42
2018-12-13T11:42:50.268Z,103292.38
2018-12-13T11:45:19.282Z,103290.62
2018-12-13T11:47:48.002Z,103296.70
2018-12-13T11:50:17.048Z,103300.20
2018-12-13T11:52:47.080Z,103286.30
2018-12-13T11:55:39.337Z,103286.02
2018-12-13T11:58:12.660Z,103279.36
2018-12-13T12:00:41.849Z,103280.92
2018-12-13T12:03:10.637Z,103288.17
2018-12-13T12:05:40.473Z,103283.64
2018-12-13T12:08:09.728Z,103293.05
2018-12-13T12:10:38.499Z,103296.58
2018-12-13T12:13:07.879Z,103297.57
2018-12-13T12:15:36.627Z,103293.64
2018-12-13T12:18:05.521Z,103288.94
2018-12-13T12:20:34.409Z,103289.23
2018-12-13T12:23:03.365Z,103285.52
2018-12-13T12:25:32.262Z,103285.90
2018-12-13T12:28:01.267Z,103284.23
2018-12-13T12:30:30.335Z,103287.00
2018-12-13T12:32:59.959Z,103279.92
2018-12-13T12:35:28.809Z,103292.48
2018-12-13T12:37:57.603Z,103291.00
2018-12-13T12:40:26.388Z,103292.17
2018-12-13T12:42:55.336Z,103296.70
2018-12-13T12:45:24.537Z,103293.34
2018-12-13T12:47:53.659Z,103292.56
2018-12-13T12:50:22.809Z,103289.34
2018-12-13T12:52:51.604Z,103292.27
2018-12-13T12:55:20.621Z,103287.47
2018-12-13T12:57:49.406Z,103287.78
2018-12-13T13:00:18.552Z,103286.69
2018-12-13T13:02:49.026Z,103283.09
2018-12-13T13:05:18.098Z,103280.22
2018-12-13T13:07:47.006Z,103277.67
2018-12-13T13:10:16.015Z,103278.67
2018-12-13T13:12:45.204Z,103273.18
2018-12-13T13:15:14.057Z,103268.76
2018-12-13T13:17:43.139Z,103273.28
2018-12-13T13:20:11.878Z,103273.66
2018-12-13T13:22:40.766Z,103270.82
2018-12-13T13:25:09.774Z,103264.23
2018-12-13T13:27:39.144Z,103265.92
2018-12-13T13:30:08.189Z,103273.84
2018-12-13T13:32:37.055Z,103271.09
2018-12-13T13:35:06.068Z,103277.07
2018-12-13T13:37:34.946Z,103272.66
2018-12-13T13:40:04.170Z,103303.15
2018-12-13T13:42:32.951Z,103277.19
2018-12-13T13:45:03.310Z,103272.98
2018-12-13T13:47:32.011Z,103270.33
2018-12-13T13:50:00.757Z,103273.64
2018-12-13T13:52:29.545Z,103269.02
2018-12-13T13:54:58.304Z,103265.51
2018-12-13T13:57:26.946Z,103275.20
2018-12-13T13:59:55.637Z,103274.42
2018-12-13T14:02:24.380Z,103272.73
2018-12-13T14:04:53.228Z,103274.89
2018-12-13T14:07:22.148Z,103284.62
2018-12-13T14:09:51.175Z,103282.14
2018-12-13T14:12:19.854Z,103280.30
2018-12-13T14:14:48.662Z,103274.02
2018-12-13T14:17:17.824Z,103274.63
2018-12-13T14:19:46.798Z,103280.89
2018-12-13T14:22:15.522Z,103284.11
2018-12-13T14:24:44.633Z,103280.22
2018-12-13T14:27:14.392Z,103273.75
2018-12-13T14:29:43.120Z,103272.98
2018-12-13T14:32:11.845Z,103281.00
2018-12-13T14:34:40.552Z,103284.44
2018-12-13T14:37:09.457Z,103284.23
2018-12-13T14:39:44.222Z,103284.94
2018-12-13T14:42:09.294Z,103282.29
2018-12-13T14:44:38.424Z,103279.64
2018-12-13T14:47:07.994Z,103278.47
2018-12-13T14:49:36.975Z,103277.86
2018-12-13T14:52:06.168Z,103281.00
2018-12-13T14:54:35.369Z,103282.67
2018-12-13T14:57:04.490Z,103284.94
2018-12-13T14:59:33.558Z,103289.54
2018-12-13T15:02:03.074Z,103291.70
2018-12-13T15:04:32.084Z,103291.37
2018-12-13T15:07:02.204Z,103288.44
2018-12-13T15:09:31.122Z,103292.75
2018-12-13T15:12:00.103Z,103294.70
2018-12-13T15:14:29.607Z,103295.52
2018-12-13T15:16:58.318Z,103293.04
2018-12-13T15:19:27.080Z,103295.41
2018-12-13T15:21:56.289Z,103288.36
2018-12-13T15:24:25.217Z,103290.98
2018-12-13T15:26:55.312Z,103286.66
2018-12-13T15:29:24.484Z,103288.53
2018-12-13T15:31:59.279Z,103289.12
2018-12-13T15:34:25.427Z,103281.20
2018-12-13T15:36:55.545Z,103288.25
2018-12-13T15:39:24.574Z,103290.97
2018-12-13T15:41:54.409Z,103290.29
2018-12-13T15:44:24.119Z,103296.95
2018-12-13T15:46:54.063Z,103293.52
2018-12-13T15:49:24.946Z,103291.37
2018-12-13T15:51:54.797Z,103290.56
2018-12-13T15:54:23.827Z,103292.82
2018-12-13T15:56:53.803Z,103288.33
2018-12-13T15:59:22.973Z,103285.96
2018-12-13T16:01:52.621Z,103286.67
2018-12-13T16:04:21.964Z,103283.81
2018-12-13T16:06:51.320Z,103280.79
2018-12-13T16:09:20.353Z,103274.64
2018-12-13T16:11:49.971Z,103281.97
2018-12-13T16:14:19.681Z,103284.34
2018-12-13T16:16:48.658Z,103286.50
2018-12-13T16:19:18.013Z,103283.95
2018-12-13T16:21:47.435Z,103286.00
2018-12-13T16:24:16.409Z,103290.49
2018-12-13T16:26:45.519Z,103288.93
2018-12-13T16:29:14.788Z,103296.47
2018-12-13T16:31:44.180Z,103287.87
2018-12-13T16:34:12.894Z,103287.38
2018-12-13T16:36:41.852Z,103281.02
2018-12-13T16:39:10.785Z,103290.11
2018-12-13T16:41:39.887Z,103285.11
2018-12-13T16:44:10.233Z,103284.52
2018-12-13T16:46:39.521Z,103237.55
2018-12-13T16:49:08.585Z,103277.37
2018-12-13T16:51:37.275Z,103273.55
2018-12-13T16:54:06.108Z,103274.44
2018-12-13T16:56:35.369Z,103228.64
2018-12-13T16:59:04.822Z,103261.82
2018-12-13T17:01:33.907Z,103324.21
2018-12-13T17:04:02.913Z,103267.97
2018-12-13T17:06:31.765Z,103265.03
2018-12-13T17:09:00.900Z,103262.81
2018-12-13T17:11:29.626Z,103260.73
2018-12-13T17:13:58.296Z,103252.81
2018-12-13T17:16:27.227Z,103252.61
2018-12-13T17:18:56.164Z,103253.38
2018-12-13T17:21:25.071Z,103253.80
2018-12-13T17:23:54.092Z,103259.36
2018-12-13T17:26:23.047Z,103251.26
2018-12-13T17:28:52.236Z,103259.96
2018-12-13T17:31:21.452Z,103261.52
2018-12-13T17:33:50.357Z,103261.03
2018-12-13T17:36:19.134Z,103261.34
2018-12-13T17:38:48.085Z,103262.91
2018-12-13T17:41:16.964Z,103256.15
2018-12-13T17:43:45.842Z,103256.75
2018-12-13T17:46:14.494Z,103256.92
2018-12-13T17:48:43.507Z,103252.50
2018-12-13T17:51:12.407Z,103256.43
2018-12-13T17:53:41.418Z,103248.91
2018-12-13T17:56:10.801Z,103245.76
2018-12-13T17:58:40.280Z,103242.44
2018-12-13T18:01:09.150Z,103239.30
2018-12-13T18:03:38.255Z,103243.50
2018-12-13T18:06:07.133Z,103250.25
2018-12-13T18:08:35.979Z,103252.12
2018-12-13T18:11:04.812Z,103254.66
2018-12-13T18:13:33.657Z,103251.45
2018-12-13T18:16:02.927Z,103250.17
2018-12-13T18:18:31.678Z,103248.80
2018-12-13T18:21:01.200Z,103251.13
2018-12-13T18:23:30.428Z,103249.01
2018-12-13T18:25:59.189Z,103253.22
2018-12-13T18:28:28.597Z,103242.72
2018-12-13T18:30:57.385Z,103240.00
2018-12-13T18:33:25.990Z,103243.53
2018-12-13T18:35:54.739Z,103241.94
2018-12-13T18:38:23.854Z,103238.51
2018-12-13T18:40:53.023Z,103232.74
2018-12-13T18:43:21.804Z,103234.23
2018-12-13T18:45:50.565Z,103235.96
2018-12-13T18:48:19.357Z,103230.87
2018-12-13T18:50:48.136Z,103238.92
2018-12-13T18:53:16.737Z,103242.75
2018-12-13T18:55:45.496Z,103240.59
2018-12-13T18:58:14.554Z,103244.88
2018-12-13T19:00:43.358Z,103239.89
2018-12-13T19:03:12.539Z,103241.55
2018-12-13T19:05:41.701Z,103252.12
2018-12-13T19:08:11.624Z,103237.45
2018-12-13T19:10:42.011Z,103236.56
2018-12-13T19:13:11.188Z,103230.09
2018-12-13T19:15:40.171Z,103237.34
2018-12-13T19:18:09.167Z,103237.13
2018-12-13T19:20:38.346Z,103236.08
2018-12-13T19:23:07.562Z,103235.69
2018-12-13T19:25:36.282Z,103239.40
2018-12-13T19:28:05.214Z,103240.39
2018-12-13T19:30:34.493Z,103241.34
2018-12-13T19:33:03.267Z,103237.95
2018-12-13T19:35:31.892Z,103233.03
2018-12-13T19:38:01.164Z,103238.02
2018-12-13T19:40:30.938Z,103235.37
2018-12-13T19:42:59.781Z,103229.22
2018-12-13T19:45:29.024Z,103227.56
2018-12-13T19:47:58.139Z,103235.86
2018-12-13T19:50:26.919Z,103238.23
2018-12-13T19:52:55.741Z,103246.64
2018-12-13T19:55:24.630Z,103246.54
2018-12-13T19:57:53.440Z,103236.47
2018-12-13T20:00:22.330Z,103231.48
2018-12-13T20:02:52.439Z,103235.69
2018-12-13T20:05:21.716Z,103242.62
2018-12-13T20:07:50.907Z,103246.92
2018-12-13T20:14:04.024Z,103248.09
2018-12-13T20:16:34.323Z,103245.27
2018-12-13T20:19:05.220Z,103240.95
2018-12-13T20:21:34.867Z,103243.98
2018-12-13T20:24:04.196Z,103237.45
2018-12-13T20:26:33.480Z,103252.51
2018-12-13T20:29:02.941Z,103238.02
2018-12-13T20:31:32.514Z,103241.55
2018-12-13T20:34:01.859Z,103241.45
2018-12-13T20:36:31.339Z,103241.94
2018-12-13T20:39:01.390Z,103250.63
2018-12-13T20:41:30.410Z,103246.15
2018-12-13T20:43:59.990Z,103241.34
2018-12-13T20:46:29.457Z,103236.25
2018-12-13T20:48:59.026Z,103182.73
2018-12-13T20:51:28.593Z,103243.80
2018-12-13T20:53:57.915Z,103243.63
2018-12-13T20:56:27.103Z,103238.43
2018-12-13T20:58:56.409Z,103248.61
2018-12-13T21:01:25.507Z,103250.09
2018-12-13T21:03:55.720Z,103253.98
2018-12-13T21:06:25.062Z,103251.51
2018-12-13T21:08:54.114Z,103251.94
2018-12-13T21:11:23.779Z,103256.31
2018-12-13T21:13:53.891Z,103254.86
2018-12-13T21:16:24.251Z,103262.49
2018-12-13T21:18:53.727Z,103257.80
2018-12-13T21:21:23.399Z,103257.02
2018-12-13T21:23:52.896Z,103255.64
2018-12-13T21:26:22.250Z,103256.91
2018-12-13T21:28:51.342Z,103258.86
2018-12-13T21:31:20.155Z,103255.05
2018-12-13T21:33:49.356Z,103255.25
2018-12-13T21:36:18.090Z,103254.37
2018-12-13T21:38:47.047Z,103258.89
2018-12-13T21:41:16.053Z,103262.09
2018-12-13T21:43:44.908Z,103256.13
2018-12-13T21:46:13.825Z,103258.17
2018-12-13T21:48:42.479Z,103247.33
2018-12-13T21:51:11.587Z,103250.16
2018-12-13T21:53:40.570Z,103248.88
2018-12-13T21:56:09.809Z,103248.39
2018-12-13T21:58:38.458Z,103251.33
2018-12-13T22:01:07.278Z,103253.41
2018-12-13T22:03:36.423Z,103256.89
2018-12-13T22:06:05.098Z,103269.50
2018-12-13T22:08:34.201Z,103261.48
2018-12-13T22:11:03.033Z,103269.42
2018-12-13T22:13:31.927Z,103258.16
2018-12-13T22:16:01.248Z,103256.77
2018-12-13T22:18:29.891Z,103254.93
2018-12-13T22:20:58.767Z,103253.55
2018-12-13T22:23:28.166Z,103259.02
2018-12-13T22:25:57.804Z,103258.14
2018-12-13T22:28:27.563Z,103254.91
2018-12-13T22:30:56.528Z,103250.11
2018-12-13T22:33:25.460Z,103246.30
2018-12-13T22:35:54.357Z,103204.37
2018-12-13T22:38:23.123Z,103243.92
2018-12-13T22:40:52.086Z,103243.84
2018-12-13T22:43:21.225Z,103245.58
2018-12-13T22:45:50.188Z,103242.58
2018-12-13T22:48:19.363Z,103238.16
2018-12-13T22:50:48.498Z,103247.61
2018-12-13T22:53:17.803Z,103253.89
2018-12-13T22:55:46.467Z,103245.66
2018-12-13T22:58:15.243Z,103245.27
2018-12-13T23:00:44.354Z,103240.57
2018-12-13T23:03:13.483Z,103246.66
2018-12-13T23:05:42.531Z,103249.19
2018-12-13T23:08:11.211Z,103247.53
2018-12-13T23:10:39.903Z,103245.95
2018-12-13T23:14:20.526Z,103249.30
2018-12-13T23:16:49.326Z,103257.31
2018-12-13T23:19:18.243Z,103248.97
2018-12-13T23:21:47.067Z,103246.24
2018-12-13T23:24:15.875Z,103246.80
2018-12-13T23:26:44.496Z,103247.57
2018-12-13T23:29:13.443Z,103247.88
2018-12-13T23:31:42.256Z,103250.09
2018-12-13T23:34:11.320Z,103249.09
2018-12-13T23:36:40.156Z,103239.67
2018-12-13T23:39:09.146Z,103234.57
2018-12-13T23:41:39.345Z,103215.41
2018-12-13T23:44:08.640Z,103234.66
2018-12-13T23:46:37.666Z,103230.34
2018-12-13T23:49:06.584Z,103256.63
2018-12-13T23:51:35.273Z,103232.50
2018-12-13T23:54:04.232Z,103228.80
2018-12-13T23:56:33.061Z,103236.23
2018-12-13T23:59:02.309Z,103233.41
